sensor_id;sensor_type;location;lat;lon;timestamp;pressure;altitude;pressure_sealevel;temperature;humidity
61408;BME280;47274;43.054;25.146;2023-06-14T18:32:24;95415.91;;;18.34;87.62
61408;BME280;47274;43.054;25.146;2023-06-14T18:34:50;95481.16;;;18.79;88.42
61408;BME280;47274;43.054;25.146;2023-06-14T18:37:16;95446.31;;;18.46;88.24
61408;BME280;47274;43.054;25.146;2023-06-14T18:39:42;95485.72;;;18.63;87.88
61408;BME280;47274;43.054;25.146;2023-06-14T18:42:08;95446.06;;;18.35;87.18
61408;BME280;47274;43.054;25.146;2023-06-14T18:44:33;95434.28;;;18.32;86.40
61408;BME280;47274;43.054;25.146;2023-06-14T18:46:59;95487.34;;;18.71;86.73
61408;BME280;47274;43.054;25.146;2023-06-14T18:49:25;95487.53;;;18.69;86.18
61408;BME280;47274;43.054;25.146;2023-06-14T18:51:51;95456.09;;;18.44;85.87
61408;BME280;47274;43.054;25.146;2023-06-14T18:54:17;95502.91;;;18.64;86.41
61408;BME280;47274;43.054;25.146;2023-06-14T18:56:44;95495.09;;;18.51;87.08
61408;BME280;47274;43.054;25.146;2023-06-14T18:59:11;95498.50;;;18.58;86.50
61408;BME280;47274;43.054;25.146;2023-06-14T19:01:37;95449.44;;;18.29;86.62
61408;BME280;47274;43.054;25.146;2023-06-14T19:04:03;95514.09;;;18.58;88.30
61408;BME280;47274;43.054;25.146;2023-06-14T19:06:29;95492.09;;;18.47;89.40
61408;BME280;47274;43.054;25.146;2023-06-14T19:08:54;95513.91;;;18.53;89.17
61408;BME280;47274;43.054;25.146;2023-06-14T19:11:20;95511.72;;;18.57;89.09
61408;BME280;47274;43.054;25.146;2023-06-14T19:13:49;95509.25;;;18.48;89.19
61408;BME280;47274;43.054;25.146;2023-06-14T19:16:15;95509.25;;;18.48;90.01
61408;BME280;47274;43.054;25.146;2023-06-14T19:18:42;95491.63;;;18.31;90.27
61408;BME280;47274;43.054;25.146;2023-06-14T19:21:08;95496.19;;;18.22;91.19
61408;BME280;47274;43.054;25.146;2023-06-14T19:23:42;95489.16;;;18.09;91.05
61408;BME280;47274;43.054;25.146;2023-06-14T19:26:09;95507.97;;;18.18;90.30
61408;BME280;47274;43.054;25.146;2023-06-14T19:28:35;95531.25;;;18.39;90.35
61408;BME280;47274;43.054;25.146;2023-06-14T19:31:01;95485.19;;;18.13;90.46
61408;BME280;47274;43.054;25.146;2023-06-14T19:33:27;95503.59;;;18.25;90.75
61408;BME280;47274;43.054;25.146;2023-06-14T19:35:53;95488.78;;;18.12;90.76
61408;BME280;47274;43.054;25.146;2023-06-14T19:38:19;95499.13;;;18.06;91.74
61408;BME280;47274;43.054;25.146;2023-06-14T19:40:45;95478.72;;;17.96;91.22
61408;BME280;47274;43.054;25.146;2023-06-14T19:43:10;95483.34;;;18.07;90.76
61408;BME280;47274;43.054;25.146;2023-06-14T19:45:37;95474.34;;;18.03;91.40
61408;BME280;47274;43.054;25.146;2023-06-14T19:48:05;95489.59;;;18.19;90.60
61408;BME280;47274;43.054;25.146;2023-06-14T19:50:31;95504.41;;;18.26;91.68
61408;BME280;47274;43.054;25.146;2023-06-14T19:52:57;95490.34;;;18.07;93.56
61408;BME280;47274;43.054;25.146;2023-06-14T19:55:25;95478.47;;;17.91;94.78
61408;BME280;47274;43.054;25.146;2023-06-14T19:57:51;95510.72;;;18.10;97.11
61408;BME280;47274;43.054;25.146;2023-06-14T20:00:17;95478.06;;;17.87;96.45
61408;BME280;47274;43.054;25.146;2023-06-14T20:02:43;95482.50;;;17.93;98.16
61408;BME280;47274;43.054;25.146;2023-06-14T20:05:08;95478.69;;;17.89;97.46
61408;BME280;47274;43.054;25.146;2023-06-14T20:07:34;95502.94;;;18.10;97.86
61408;BME280;47274;43.054;25.146;2023-06-14T20:10:02;95479.09;;;17.93;97.44
61408;BME280;47274;43.054;25.146;2023-06-14T20:12:28;95459.69;;;17.82;96.38
61408;BME280;47274;43.054;25.146;2023-06-14T20:14:53;95462.13;;;17.97;94.47
61408;BME280;47274;43.054;25.146;2023-06-14T20:17:19;95477.75;;;18.04;94.57
61408;BME280;47274;43.054;25.146;2023-06-14T20:19:48;95475.53;;;18.00;95.21
61408;BME280;47274;43.054;25.146;2023-06-14T20:22:17;95494.38;;;18.16;94.60
61408;BME280;47274;43.054;25.146;2023-06-14T20:24:44;95516.00;;;18.23;95.18
61408;BME280;47274;43.054;25.146;2023-06-14T20:27:10;95432.44;;;17.71;94.64
61408;BME280;47274;43.054;25.146;2023-06-14T20:29:37;95475.91;;;17.97;97.07
61408;BME280;47274;43.054;25.146;2023-06-14T20:32:03;95518.56;;;18.16;99.13
61408;BME280;47274;43.054;25.146;2023-06-14T20:34:29;95471.88;;;17.82;99.32
61408;BME280;47274;43.054;25.146;2023-06-14T20:36:55;95468.84;;;17.78;100.00
61408;BME280;47274;43.054;25.146;2023-06-14T20:39:21;95491.84;;;17.81;100.00
61408;BME280;47274;43.054;25.146;2023-06-14T20:41:47;95468.16;;;17.69;100.00
61408;BME280;47274;43.054;25.146;2023-06-14T20:44:13;95482.31;;;17.67;100.00
61408;BME280;47274;43.054;25.146;2023-06-14T20:46:41;95465.28;;;17.51;100.00
61408;BME280;47274;43.054;25.146;2023-06-14T20:49:13;95469.84;;;17.49;100.00
61408;BME280;47274;43.054;25.146;2023-06-14T20:51:39;95463.63;;;17.43;100.00
61408;BME280;47274;43.054;25.146;2023-06-14T20:54:04;95483.81;;;17.48;100.00
61408;BME280;47274;43.054;25.146;2023-06-14T20:56:30;95438.66;;;17.08;100.00
61408;BME280;47274;43.054;25.146;2023-06-14T20:58:56;95494.31;;;17.40;100.00
61408;BME280;47274;43.054;25.146;2023-06-14T21:01:22;95457.31;;;17.24;100.00
61408;BME280;47274;43.054;25.146;2023-06-14T21:03:58;95467.91;;;17.29;100.00
61408;BME280;47274;43.054;25.146;2023-06-14T21:06:24;95448.88;;;17.16;100.00
61408;BME280;47274;43.054;25.146;2023-06-14T21:08:51;95462.31;;;17.26;100.00
61408;BME280;47274;43.054;25.146;2023-06-14T21:11:17;95453.63;;;17.12;100.00
61408;BME280;47274;43.054;25.146;2023-06-14T21:13:48;95462.59;;;17.10;100.00
61408;BME280;47274;43.054;25.146;2023-06-14T21:16:17;95492.03;;;17.23;100.00
61408;BME280;47274;43.054;25.146;2023-06-14T21:18:43;95477.38;;;17.16;100.00
61408;BME280;47274;43.054;25.146;2023-06-14T21:21:09;95455.38;;;17.05;100.00
61408;BME280;47274;43.054;25.146;2023-06-14T21:23:35;95453.09;;;16.95;100.00
61408;BME280;47274;43.054;25.146;2023-06-14T21:26:01;95420.56;;;16.71;100.00
61408;BME280;47274;43.054;25.146;2023-06-14T21:28:27;95435.94;;;16.94;100.00
61408;BME280;47274;43.054;25.146;2023-06-14T21:30:53;95414.16;;;16.89;100.00
61408;BME280;47274;43.054;25.146;2023-06-14T21:33:18;95442.25;;;17.07;100.00
61408;BME280;47274;43.054;25.146;2023-06-14T21:35:45;95486.91;;;17.30;100.00
61408;BME280;47274;43.054;25.146;2023-06-14T21:38:11;95431.09;;;16.85;100.00
61408;BME280;47274;43.054;25.146;2023-06-14T21:40:38;95485.38;;;17.14;100.00
61408;BME280;47274;43.054;25.146;2023-06-14T21:43:06;95440.09;;;16.89;100.00
61408;BME280;47274;43.054;25.146;2023-06-14T21:45:32;95451.34;;;16.96;100.00
61408;BME280;47274;43.054;25.146;2023-06-14T21:47:58;95447.47;;;17.13;100.00
61408;BME280;47274;43.054;25.146;2023-06-14T21:50:24;95437.47;;;17.10;100.00
61408;BME280;47274;43.054;25.146;2023-06-14T21:52:49;95462.88;;;17.21;100.00
61408;BME280;47274;43.054;25.146;2023-06-14T21:55:15;95483.47;;;17.29;100.00
61408;BME280;47274;43.054;25.146;2023-06-14T21:57:43;95444.94;;;16.98;100.00
61408;BME280;47274;43.054;25.146;2023-06-14T22:00:10;95391.06;;;16.66;100.00
61408;BME280;47274;43.054;25.146;2023-06-14T22:02:36;95417.19;;;16.71;100.00
61408;BME280;47274;43.054;25.146;2023-06-14T22:05:04;95439.06;;;16.83;100.00
61408;BME280;47274;43.054;25.146;2023-06-14T22:07:30;95382.97;;;16.54;100.00
61408;BME280;47274;43.054;25.146;2023-06-14T22:10:07;95450.75;;;17.00;100.00
61408;BME280;47274;43.054;25.146;2023-06-14T22:12:33;95466.00;;;17.10;100.00
61408;BME280;47274;43.054;25.146;2023-06-14T22:15:00;95418.56;;;16.88;100.00
61408;BME280;47274;43.054;25.146;2023-06-14T22:17:31;95417.34;;;16.84;100.00
61408;BME280;47274;43.054;25.146;2023-06-14T22:19:57;95422.50;;;16.84;100.00
61408;BME280;47274;43.054;25.146;2023-06-14T22:22:23;95452.78;;;17.05;100.00
61408;BME280;47274;43.054;25.146;2023-06-14T22:24:52;95422.38;;;16.71;100.00
61408;BME280;47274;43.054;25.146;2023-06-14T22:27:22;95443.19;;;16.77;100.00
61408;BME280;47274;43.054;25.146;2023-06-14T22:29:51;95394.09;;;16.48;100.00
61408;BME280;47274;43.054;25.146;2023-06-14T22:32:26;95451.06;;;16.69;100.00
61408;BME280;47274;43.054;25.146;2023-06-14T22:34:52;95463.75;;;16.79;100.00
61408;BME280;47274;43.054;25.146;2023-06-14T22:37:18;95402.97;;;16.39;100.00
61408;BME280;47274;43.054;25.146;2023-06-14T22:39:44;95461.97;;;16.79;100.00
61408;BME280;47274;43.054;25.146;2023-06-14T22:42:13;95457.75;;;16.78;100.00
61408;BME280;47274;43.054;25.146;2023-06-14T22:44:43;95419.53;;;16.44;100.00
61408;BME280;47274;43.054;25.146;2023-06-14T22:47:22;95446.44;;;16.65;100.00
61408;BME280;47274;43.054;25.146;2023-06-14T22:49:48;95463.13;;;16.77;100.00
61408;BME280;47274;43.054;25.146;2023-06-14T22:52:22;95426.28;;;16.60;100.00
61408;BME280;47274;43.054;25.146;2023-06-14T22:54:53;95448.22;;;16.79;100.00
61408;BME280;47274;43.054;25.146;2023-06-14T22:57:19;95419.28;;;16.61;100.00
61408;BME280;47274;43.054;25.146;2023-06-14T22:59:46;95411.66;;;16.52;100.00
61408;BME280;47274;43.054;25.146;2023-06-14T23:02:12;95428.63;;;16.55;100.00
61408;BME280;47274;43.054;25.146;2023-06-14T23:04:38;95389.38;;;16.37;100.00
61408;BME280;47274;43.054;25.146;2023-06-14T23:07:05;95354.63;;;16.24;100.00
61408;BME280;47274;43.054;25.146;2023-06-14T23:09:31;95451.72;;;16.93;100.00
61408;BME280;47274;43.054;25.146;2023-06-14T23:11:58;95417.38;;;16.69;100.00
61408;BME280;47274;43.054;25.146;2023-06-14T23:14:26;95409.13;;;16.59;100.00
61408;BME280;47274;43.054;25.146;2023-06-14T23:16:52;95436.63;;;16.81;100.00
61408;BME280;47274;43.054;25.146;2023-06-14T23:19:19;95386.75;;;16.51;100.00
61408;BME280;47274;43.054;25.146;2023-06-14T23:21:48;95388.56;;;16.57;100.00
61408;BME280;47274;43.054;25.146;2023-06-14T23:24:14;95380.84;;;16.64;100.00
61408;BME280;47274;43.054;25.146;2023-06-14T23:26:40;95445.63;;;17.07;100.00
61408;BME280;47274;43.054;25.146;2023-06-14T23:29:07;95453.03;;;17.10;100.00
61408;BME280;47274;43.054;25.146;2023-06-14T23:31:33;95454.19;;;17.08;100.00
61408;BME280;47274;43.054;25.146;2023-06-14T23:34:04;95357.63;;;16.49;100.00
61408;BME280;47274;43.054;25.146;2023-06-14T23:36:31;95413.75;;;16.85;100.00
61408;BME280;47274;43.054;25.146;2023-06-14T23:39:00;95347.31;;;16.56;100.00
61408;BME280;47274;43.054;25.146;2023-06-14T23:41:31;95426.84;;;17.05;100.00
61408;BME280;47274;43.054;25.146;2023-06-14T23:43:58;95413.19;;;16.90;100.00
61408;BME280;47274;43.054;25.146;2023-06-14T23:46:26;95398.13;;;16.78;100.00
61408;BME280;47274;43.054;25.146;2023-06-14T23:48:56;95382.09;;;16.68;100.00
61408;BME280;47274;43.054;25.146;2023-06-14T23:51:23;95366.34;;;16.42;100.00
61408;BME280;47274;43.054;25.146;2023-06-14T23:53:49;95414.75;;;16.63;100.00
61408;BME280;47274;43.054;25.146;2023-06-14T23:56:20;95364.38;;;16.22;100.00
61408;BME280;47274;43.054;25.146;2023-06-14T23:58:47;95357.91;;;16.11;100.00
